createdAt,value
2022-09-25T00:02:14.187Z,53.20
2022-09-25T00:04:45.505Z,48.73
2022-09-25T00:07:16.754Z,48.30
2022-09-25T00:09:48.021Z,51.43
2022-09-25T00:12:19.298Z,61.43
2022-09-25T00:14:51.615Z,57.60
2022-09-25T00:17:22.954Z,67.33
2022-09-25T00:19:54.332Z,58.43
2022-09-25T00:22:26.725Z,72.03
2022-09-25T00:24:57.987Z,59.03
2022-09-25T00:27:29.403Z,62.80
2022-09-25T00:30:00.820Z,70.43
2022-09-25T00:32:32.462Z,70.67
2022-09-25T00:35:04.838Z,53.63
2022-09-25T00:37:36.850Z,67.23
2022-09-25T00:40:08.595Z,60.13
2022-09-25T00:42:41.189Z,57.73
2022-09-25T00:45:22.051Z,59.40
2022-09-25T00:48:00.741Z,48.60
2022-09-25T00:50:41.453Z,58.90
2022-09-25T00:53:18.881Z,54.23
2022-09-25T00:55:50.857Z,52.83
2022-09-25T00:58:24.614Z,58.90
2022-09-25T01:00:56.054Z,56.63
2022-09-25T01:03:28.278Z,49.47
2022-09-25T01:06:00.796Z,50.17
2022-09-25T01:08:34.111Z,35.03
2022-09-25T01:11:05.439Z,36.83
2022-09-25T01:13:39.064Z,40.40
2022-09-25T01:16:42.908Z,41.53
2022-09-25T01:19:32.173Z,42.10
2022-09-25T01:22:32.442Z,43.43
2022-09-25T01:25:35.002Z,39.73
2022-09-25T01:28:37.498Z,44.70
2022-09-25T01:31:17.786Z,43.23
2022-09-25T01:33:58.565Z,46.10
2022-09-25T01:36:38.473Z,44.83
2022-09-25T01:39:20.413Z,50.67
2022-09-25T01:42:00.729Z,45.47
2022-09-25T01:44:34.630Z,40.53
2022-09-25T01:47:10.669Z,40.20
2022-09-25T01:49:53.186Z,33.85
2022-09-25T01:52:32.867Z,34.30
2022-09-25T01:55:12.376Z,34.73
2022-09-25T01:57:49.196Z,30.10
2022-09-25T02:00:22.867Z,34.20
2022-09-25T02:03:06.270Z,39.37
2022-09-25T02:05:45.202Z,32.77
2022-09-25T02:08:49.667Z,36.67
2022-09-25T02:11:21.612Z,40.47
2022-09-25T02:14:02.529Z,40.37
2022-09-25T02:16:44.663Z,45.90
2022-09-25T02:19:36.052Z,40.27
2022-09-25T02:22:20.604Z,43.77
2022-09-25T02:25:00.477Z,37.70
2022-09-25T02:27:32.618Z,47.83
2022-09-25T02:30:04.583Z,49.67
2022-09-25T02:32:35.835Z,41.87
2022-09-25T02:35:07.348Z,38.80
2022-09-25T02:37:38.665Z,44.63
2022-09-25T02:40:11.513Z,54.80
2022-09-25T02:42:50.345Z,46.57
2022-09-25T02:45:52.040Z,46.63
2022-09-25T02:48:41.148Z,40.67
2022-09-25T02:51:24.903Z,50.93
2022-09-25T02:54:08.435Z,51.50
2022-09-25T02:57:04.278Z,50.53
2022-09-25T02:59:41.535Z,54.28
2022-09-25T03:02:15.621Z,68.33
2022-09-25T03:04:48.646Z,61.27
2022-09-25T03:07:20.213Z,64.63
2022-09-25T03:09:54.921Z,71.03
2022-09-25T03:12:26.175Z,58.43
2022-09-25T03:14:57.442Z,78.67
2022-09-25T03:17:28.757Z,70.00
2022-09-25T03:20:00.134Z,84.30
2022-09-25T03:22:31.449Z,57.90
2022-09-25T03:25:04.521Z,78.27
2022-09-25T03:27:36.340Z,74.57
2022-09-25T03:30:08.336Z,83.97
2022-09-25T03:32:42.029Z,86.53
2022-09-25T03:35:13.363Z,96.37
2022-09-25T03:37:44.617Z,78.03
2022-09-25T03:40:16.347Z,80.70
2022-09-25T03:42:48.342Z,79.50
2022-09-25T03:45:19.828Z,92.90
2022-09-25T03:47:51.138Z,92.87
2022-09-25T03:50:22.414Z,82.93
2022-09-25T03:52:53.673Z,109.77
2022-09-25T03:55:25.990Z,95.00
2022-09-25T03:57:57.417Z,108.10
2022-09-25T04:00:28.729Z,90.70
2022-09-25T04:03:00.157Z,81.73
2022-09-25T04:05:31.418Z,97.30
2022-09-25T04:08:02.707Z,88.30
2022-09-25T04:10:38.750Z,83.07
2022-09-25T04:13:13.315Z,70.88
2022-09-25T04:15:44.582Z,68.00
2022-09-25T04:18:15.876Z,70.87
2022-09-25T04:20:47.281Z,62.43
2022-09-25T04:23:18.557Z,64.40
2022-09-25T04:25:49.961Z,65.63
2022-09-25T04:28:22.388Z,64.50
2022-09-25T04:30:53.785Z,63.13
2022-09-25T04:33:43.913Z,72.53
2022-09-25T04:36:18.841Z,66.37
2022-09-25T04:38:50.115Z,69.13
2022-09-25T04:41:21.451Z,63.10
2022-09-25T04:43:52.695Z,66.27
2022-09-25T04:46:24.077Z,70.47
2022-09-25T04:48:55.347Z,73.37
2022-09-25T04:51:26.602Z,80.43
2022-09-25T04:53:57.937Z,68.10
2022-09-25T04:56:29.368Z,67.70
2022-09-25T04:59:00.643Z,65.97
2022-09-25T05:01:31.915Z,64.13
2022-09-25T05:04:08.329Z,66.10
2022-09-25T05:06:40.085Z,65.97
2022-09-25T05:09:11.381Z,71.53
2022-09-25T05:11:42.638Z,71.10
2022-09-25T05:14:13.913Z,63.83
2022-09-25T05:16:48.902Z,36.57
2022-09-25T05:19:20.157Z,24.13
2022-09-25T05:21:52.945Z,18.03
2022-09-25T05:24:24.186Z,15.27
2022-09-25T05:26:55.486Z,13.13
2022-09-25T05:29:26.748Z,12.90
2022-09-25T05:31:58.012Z,11.30
2022-09-25T05:34:29.254Z,8.87
2022-09-25T05:37:00.609Z,11.50
2022-09-25T05:39:31.841Z,10.73
2022-09-25T05:42:03.298Z,9.27
2022-09-25T05:44:34.661Z,7.53
2022-09-25T05:47:07.642Z,8.00
2022-09-25T05:49:38.874Z,8.67
2022-09-25T05:52:10.130Z,9.17
2022-09-25T05:54:41.896Z,6.33
2022-09-25T05:57:13.162Z,8.87
2022-09-25T05:59:44.476Z,9.10
2022-09-25T06:02:16.817Z,6.57
2022-09-25T06:04:48.197Z,7.13
2022-09-25T06:07:19.862Z,7.57
2022-09-25T06:09:51.149Z,7.20
2022-09-25T06:12:24.686Z,9.13
2022-09-25T06:14:55.997Z,8.30
2022-09-25T06:17:27.230Z,9.00
2022-09-25T06:19:58.472Z,9.00
2022-09-25T06:22:30.108Z,12.70
2022-09-25T06:25:01.375Z,11.73
2022-09-25T06:27:33.709Z,9.40
2022-09-25T06:30:05.877Z,9.60
2022-09-25T06:32:38.041Z,8.77
2022-09-25T06:35:09.429Z,8.43
2022-09-25T06:37:40.660Z,8.07
2022-09-25T06:40:11.957Z,6.63
2022-09-25T06:42:44.979Z,9.27
2022-09-25T06:45:16.306Z,7.37
2022-09-25T06:47:47.541Z,9.13
2022-09-25T06:50:18.821Z,6.80
2022-09-25T06:52:50.061Z,7.50
2022-09-25T06:55:21.322Z,5.20
2022-09-25T06:57:52.835Z,5.80
2022-09-25T07:00:24.227Z,5.00
2022-09-25T07:03:16.232Z,4.17
2022-09-25T07:05:48.313Z,5.80
2022-09-25T07:08:21.089Z,5.23
2022-09-25T07:10:57.569Z,5.70
2022-09-25T07:13:31.472Z,4.37
2022-09-25T07:16:08.027Z,7.20
2022-09-25T07:18:39.723Z,5.50
2022-09-25T07:21:12.285Z,7.37
2022-09-25T07:23:44.458Z,5.83
2022-09-25T07:26:28.324Z,6.63
2022-09-25T07:29:06.366Z,5.13
2022-09-25T07:31:38.053Z,4.13
2022-09-25T07:34:10.004Z,4.57
2022-09-25T07:36:42.721Z,5.80
2022-09-25T07:39:18.338Z,4.90
2022-09-25T07:41:50.309Z,4.45
2022-09-25T07:44:29.045Z,5.40
2022-09-25T07:47:02.466Z,5.77
2022-09-25T07:49:34.915Z,8.13
2022-09-25T07:52:06.523Z,6.77
2022-09-25T07:54:38.190Z,9.03
2022-09-25T07:57:09.441Z,7.57
2022-09-25T07:59:40.726Z,6.83
2022-09-25T08:02:12.321Z,5.93
2022-09-25T08:04:43.621Z,6.90
2022-09-25T08:07:14.945Z,7.13
2022-09-25T08:09:46.365Z,8.63
2022-09-25T08:12:18.278Z,9.00
2022-09-25T08:14:50.378Z,11.20
2022-09-25T08:17:22.407Z,9.53
2022-09-25T08:19:53.653Z,12.97
2022-09-25T08:22:24.905Z,13.37
2022-09-25T08:24:56.174Z,10.10
2022-09-25T08:27:27.702Z,9.23
2022-09-25T08:29:59.081Z,9.30
2022-09-25T08:32:33.589Z,9.73
2022-09-25T08:35:05.362Z,17.23
2022-09-25T08:37:41.509Z,13.40
2022-09-25T08:42:52.288Z,12.37
2022-09-25T08:45:47.303Z,12.97
2022-09-25T08:48:41.267Z,16.47
2022-09-25T08:51:13.094Z,13.03
2022-09-25T08:53:46.141Z,17.07
2022-09-25T08:56:17.956Z,15.93
2022-09-25T08:59:11.969Z,17.63
2022-09-25T09:01:54.711Z,15.93
2022-09-25T09:04:38.510Z,19.23
2022-09-25T09:07:32.677Z,16.03
2022-09-25T09:10:28.225Z,16.27
2022-09-25T09:13:06.352Z,19.07
2022-09-25T09:15:46.413Z,16.03
2022-09-25T09:18:26.627Z,17.93
2022-09-25T09:21:09.062Z,14.13
2022-09-25T09:23:59.357Z,11.60
2022-09-25T09:26:36.329Z,12.97
2022-09-25T09:29:39.425Z,12.03
2022-09-25T09:32:23.954Z,11.43
2022-09-25T09:35:06.163Z,10.43
2022-09-25T09:37:50.315Z,11.77
2022-09-25T09:40:47.062Z,13.17
2022-09-25T09:43:45.238Z,10.15
2022-09-25T09:46:32.857Z,9.97
2022-09-25T09:49:18.383Z,10.13
2022-09-25T09:52:03.730Z,10.33
2022-09-25T09:54:47.964Z,11.57
2022-09-25T09:57:22.526Z,11.63
2022-09-25T10:00:04.370Z,10.93
2022-09-25T10:02:41.011Z,13.20
2022-09-25T10:05:51.976Z,11.82
2022-09-25T10:08:23.588Z,12.20
2022-09-25T10:10:59.163Z,13.10
2022-09-25T10:13:34.265Z,15.73
2022-09-25T10:16:11.545Z,12.93
2022-09-25T10:18:49.198Z,13.90
2022-09-25T10:21:24.229Z,14.53
2022-09-25T10:23:58.438Z,13.20
2022-09-25T10:26:33.216Z,12.77
2022-09-25T10:29:25.518Z,11.50
2022-09-25T10:32:03.723Z,11.77
2022-09-25T10:34:35.578Z,13.53
2022-09-25T10:37:19.650Z,12.13
2022-09-25T10:40:22.666Z,13.80
2022-09-25T10:43:24.084Z,13.30
2022-09-25T10:46:15.484Z,13.17
2022-09-25T10:49:05.698Z,15.20
2022-09-25T10:51:36.989Z,12.13
2022-09-25T10:54:13.675Z,14.97
2022-09-25T10:56:45.277Z,15.73
2022-09-25T10:59:21.019Z,13.97
2022-09-25T11:01:55.777Z,13.80
2022-09-25T11:04:30.705Z,15.73
2022-09-25T11:07:07.522Z,11.07
2022-09-25T11:09:44.841Z,16.23
2022-09-25T11:12:23.618Z,12.10
2022-09-25T11:14:59.025Z,13.43
2022-09-25T11:17:41.897Z,9.73
2022-09-25T11:20:16.460Z,16.17
2022-09-25T11:23:23.802Z,13.87
2022-09-25T11:26:15.685Z,12.85
2022-09-25T11:29:01.176Z,9.37
2022-09-25T11:31:39.398Z,11.90
2022-09-25T11:34:24.902Z,7.23
2022-09-25T11:37:15.102Z,11.67
2022-09-25T11:40:23.258Z,9.93
2022-09-25T11:43:11.150Z,8.50
2022-09-25T11:45:51.868Z,10.00
2022-09-25T11:48:50.059Z,12.80
2022-09-25T11:51:28.988Z,6.83
2022-09-25T11:54:32.604Z,8.63
2022-09-25T11:57:32.002Z,8.00
2022-09-25T12:00:21.209Z,8.77
2022-09-25T12:03:06.285Z,7.63
2022-09-25T12:06:05.580Z,8.57
2022-09-25T12:08:50.950Z,8.57
2022-09-25T12:11:30.394Z,7.03
2022-09-25T12:14:20.213Z,7.37
2022-09-25T12:17:11.467Z,6.07
2022-09-25T12:20:07.387Z,9.17
2022-09-25T12:23:00.965Z,7.57
2022-09-25T12:26:06.535Z,6.77
2022-09-25T12:29:15.699Z,10.37
2022-09-25T12:32:05.853Z,21.87
2022-09-25T12:35:08.774Z,11.07
2022-09-25T12:37:53.045Z,13.10
2022-09-25T12:40:32.269Z,6.93
2022-09-25T12:43:18.167Z,6.67
2022-09-25T12:46:24.700Z,9.52
2022-09-25T12:49:11.535Z,6.70
2022-09-25T12:51:50.719Z,6.57
2022-09-25T12:54:59.721Z,6.97
2022-09-25T12:57:41.553Z,8.13
2022-09-25T13:00:21.145Z,7.67
2022-09-25T13:03:00.830Z,6.10
2022-09-25T13:05:44.090Z,4.10
2022-09-25T13:08:23.416Z,4.80
2022-09-25T13:10:59.845Z,6.53
2022-09-25T13:13:39.913Z,7.70
2022-09-25T13:16:14.732Z,8.23
2022-09-25T13:19:07.444Z,5.03
2022-09-25T13:21:42.864Z,11.33
2022-09-25T13:24:19.612Z,3.75
2022-09-25T13:26:55.048Z,2.93
2022-09-25T13:29:30.528Z,4.15
2022-09-25T13:32:13.741Z,4.88
2022-09-25T13:34:45.934Z,8.63
2022-09-25T13:37:17.516Z,4.37
2022-09-25T13:40:08.864Z,5.40
2022-09-25T13:42:46.361Z,5.17
2022-09-25T13:45:37.293Z,4.43
2022-09-25T13:48:12.362Z,4.83
2022-09-25T13:50:47.704Z,4.23
2022-09-25T13:53:26.581Z,2.60
2022-09-25T13:55:57.893Z,1.87
2022-09-25T13:58:59.153Z,5.67
2022-09-25T14:01:45.084Z,3.27
2022-09-25T14:04:17.346Z,2.80
2022-09-25T14:06:53.957Z,4.47
2022-09-25T14:09:29.778Z,3.47
2022-09-25T14:12:22.528Z,5.60
2022-09-25T14:15:07.437Z,7.13
2022-09-25T14:17:43.535Z,5.53
2022-09-25T14:23:01.124Z,7.40
2022-09-25T14:25:38.192Z,5.13
2022-09-25T14:28:30.337Z,1.83
2022-09-25T14:31:15.391Z,7.23
2022-09-25T14:34:12.339Z,4.77
2022-09-25T14:37:23.047Z,3.45
2022-09-25T14:40:20.091Z,4.87
2022-09-25T14:43:10.465Z,3.20
2022-09-25T14:46:07.633Z,6.57
2022-09-25T14:48:52.370Z,4.27
2022-09-25T14:51:40.724Z,4.70
2022-09-25T14:54:17.706Z,3.53
2022-09-25T14:56:54.716Z,4.63
2022-09-25T14:59:39.516Z,4.20
2022-09-25T15:02:18.615Z,5.20
2022-09-25T15:04:51.005Z,7.13
2022-09-25T15:07:27.740Z,4.37
2022-09-25T15:10:01.011Z,9.00
2022-09-25T15:12:36.439Z,5.13
2022-09-25T15:15:12.583Z,2.50
2022-09-25T15:20:28.595Z,7.40
2022-09-25T15:23:10.335Z,6.20
2022-09-25T15:25:45.810Z,7.67
2022-09-25T15:28:20.167Z,4.63
2022-09-25T15:31:01.395Z,5.27
2022-09-25T15:33:36.989Z,3.93
2022-09-25T15:36:20.126Z,5.00
2022-09-25T15:39:00.005Z,4.33
2022-09-25T15:41:31.281Z,2.73
2022-09-25T15:44:24.146Z,7.13
2022-09-25T15:47:01.885Z,5.73
2022-09-25T15:49:38.397Z,3.73
2022-09-25T15:52:29.482Z,2.13
2022-09-25T15:55:05.605Z,3.63
2022-09-25T16:00:36.712Z,2.83
2022-09-25T16:03:38.399Z,4.17
2022-09-25T16:06:15.523Z,5.87
2022-09-25T16:08:47.825Z,2.77
2022-09-25T16:11:26.599Z,2.73
2022-09-25T16:14:29.272Z,3.67
2022-09-25T16:17:00.685Z,6.33
2022-09-25T16:19:34.202Z,5.23
2022-09-25T16:22:20.126Z,7.30
2022-09-25T16:24:52.903Z,5.63
2022-09-25T16:27:32.945Z,1.60
2022-09-25T16:30:05.020Z,9.27
2022-09-25T16:32:36.302Z,5.73
2022-09-25T16:35:21.332Z,4.83
2022-09-25T16:37:53.346Z,3.13
2022-09-25T16:40:33.689Z,2.37
2022-09-25T16:43:25.498Z,7.33
2022-09-25T16:46:02.038Z,4.10
2022-09-25T16:48:39.124Z,2.97
2022-09-25T16:51:21.953Z,8.47
2022-09-25T16:53:55.025Z,5.40
2022-09-25T16:56:31.403Z,5.20
2022-09-25T16:59:05.127Z,3.27
2022-09-25T17:01:38.349Z,3.80
2022-09-25T17:04:12.026Z,3.17
2022-09-25T17:06:45.740Z,4.63
2022-09-25T17:09:17.837Z,7.27
2022-09-25T17:11:50.155Z,8.43
2022-09-25T17:14:26.137Z,3.20
2022-09-25T17:16:58.869Z,5.85
2022-09-25T17:19:30.250Z,5.47
2022-09-25T17:22:01.645Z,3.27
2022-09-25T17:24:32.969Z,6.00
2022-09-25T17:27:13.434Z,3.87
2022-09-25T17:29:46.580Z,3.20
2022-09-25T17:32:17.878Z,4.77
2022-09-25T17:34:50.161Z,6.83
2022-09-25T17:37:21.506Z,3.47
2022-09-25T17:39:52.894Z,2.40
2022-09-25T17:42:26.582Z,2.30
2022-09-25T17:44:58.009Z,3.77
2022-09-25T17:47:31.623Z,4.37
2022-09-25T17:50:03.093Z,3.20
2022-09-25T17:52:34.361Z,5.33
2022-09-25T17:55:16.678Z,5.63
2022-09-25T17:57:48.622Z,5.63
2022-09-25T18:00:20.415Z,4.70
2022-09-25T18:02:51.785Z,5.17
2022-09-25T18:05:24.102Z,1.93
2022-09-25T18:07:55.945Z,2.57
2022-09-25T18:10:30.409Z,3.60
2022-09-25T18:13:02.345Z,5.23
2022-09-25T18:15:36.658Z,5.73
2022-09-25T18:18:09.066Z,3.10
2022-09-25T18:20:58.840Z,4.63
2022-09-25T18:23:33.445Z,4.33
2022-09-25T18:26:08.130Z,7.87
2022-09-25T18:28:39.406Z,11.63
2022-09-25T18:31:11.164Z,5.00
2022-09-25T18:33:47.183Z,7.43
2022-09-25T18:38:50.070Z,4.60
2022-09-25T18:41:21.336Z,4.73
2022-09-25T18:43:52.955Z,6.43
2022-09-25T18:46:24.423Z,6.30
2022-09-25T18:48:57.635Z,5.63
2022-09-25T18:51:29.022Z,5.73
2022-09-25T18:54:00.585Z,5.53
2022-09-25T18:56:34.413Z,5.10
2022-09-25T18:59:07.590Z,6.20
2022-09-25T19:01:39.612Z,7.83
2022-09-25T19:04:16.796Z,7.47
2022-09-25T19:06:48.585Z,3.70
2022-09-25T19:09:24.464Z,4.23
2022-09-25T19:11:55.810Z,3.90
2022-09-25T19:14:27.118Z,11.47
2022-09-25T19:16:58.468Z,4.90
2022-09-25T19:19:32.963Z,6.00
2022-09-25T19:22:04.926Z,3.93
2022-09-25T19:24:39.381Z,3.93
2022-09-25T19:27:11.990Z,4.80
2022-09-25T19:29:47.014Z,5.67
2022-09-25T19:32:18.399Z,2.90
2022-09-25T19:34:49.945Z,3.73
2022-09-25T19:37:24.002Z,6.83
2022-09-25T19:40:14.444Z,3.90
2022-09-25T19:42:46.796Z,6.40
2022-09-25T19:45:19.181Z,4.60
2022-09-25T19:47:50.651Z,5.13
2022-09-25T19:50:21.948Z,4.10
2022-09-25T19:52:54.713Z,6.17
2022-09-25T19:55:26.062Z,8.03
2022-09-25T19:57:57.684Z,2.73
2022-09-25T20:00:29.310Z,6.43
2022-09-25T20:03:00.755Z,5.17
2022-09-25T20:05:37.611Z,5.47
2022-09-25T20:08:09.506Z,5.03
2022-09-25T20:10:41.110Z,2.90
2022-09-25T20:13:13.513Z,6.17
2022-09-25T20:15:47.547Z,2.23
2022-09-25T20:18:18.962Z,4.47
2022-09-25T20:20:50.314Z,2.87
2022-09-25T20:23:21.638Z,2.60
2022-09-25T20:25:53.048Z,3.10
2022-09-25T20:28:25.253Z,4.03
2022-09-25T20:30:56.547Z,5.47
2022-09-25T20:33:32.468Z,1.77
2022-09-25T20:36:07.791Z,2.10
2022-09-25T20:38:39.163Z,1.67
2022-09-25T20:41:12.313Z,2.30
2022-09-25T20:43:46.910Z,2.87
2022-09-25T20:46:20.211Z,2.83
2022-09-25T20:48:53.300Z,2.40
2022-09-25T20:51:27.345Z,2.37
2022-09-25T20:54:07.638Z,2.97
2022-09-25T20:56:44.729Z,3.50
2022-09-25T20:59:16.732Z,5.07
2022-09-25T21:01:48.072Z,3.20
2022-09-25T21:04:19.612Z,5.10
2022-09-25T21:06:50.908Z,6.57
2022-09-25T21:09:25.471Z,4.33
2022-09-25T21:11:56.788Z,5.33
2022-09-25T21:14:28.549Z,7.43
2022-09-25T21:16:59.907Z,6.13
2022-09-25T21:19:31.721Z,3.37
2022-09-25T21:22:03.486Z,6.10
2022-09-25T21:24:35.813Z,5.57
2022-09-25T21:27:07.126Z,3.23
2022-09-25T21:29:38.444Z,3.47
2022-09-25T21:32:09.853Z,2.43
2022-09-25T21:34:41.099Z,3.30
2022-09-25T21:37:12.413Z,2.57
2022-09-25T21:39:43.742Z,3.03
2022-09-25T21:42:15.592Z,3.50
2022-09-25T21:44:47.334Z,2.40
2022-09-25T21:47:19.895Z,6.67
2022-09-25T21:49:51.336Z,4.43
2022-09-25T21:52:25.033Z,2.53
2022-09-25T21:54:56.289Z,4.00
2022-09-25T21:57:27.563Z,4.57
2022-09-25T21:59:58.830Z,5.93
2022-09-25T22:02:31.176Z,3.53
2022-09-25T22:05:02.493Z,2.50
2022-09-25T22:07:33.889Z,3.93
2022-09-25T22:10:05.822Z,3.97
2022-09-25T22:12:37.252Z,7.17
2022-09-25T22:15:09.454Z,2.40
2022-09-25T22:17:40.788Z,6.40
2022-09-25T22:20:12.226Z,5.53
2022-09-25T22:22:43.489Z,5.27
2022-09-25T22:25:14.903Z,5.73
2022-09-25T22:27:46.282Z,3.33
2022-09-25T22:30:17.525Z,6.13
2022-09-25T22:32:48.765Z,4.70
2022-09-25T22:35:20.010Z,4.60
2022-09-25T22:37:51.354Z,5.70
2022-09-25T22:40:22.651Z,5.63
2022-09-25T22:42:54.066Z,4.33
2022-09-25T22:45:25.393Z,4.60
2022-09-25T22:47:58.880Z,4.13
2022-09-25T22:50:30.127Z,4.43
2022-09-25T22:53:01.382Z,5.77
2022-09-25T22:55:32.785Z,8.20
2022-09-25T22:58:04.053Z,5.33
2022-09-25T23:00:35.308Z,6.23
2022-09-25T23:03:06.561Z,7.87
2022-09-25T23:05:39.315Z,5.07
2022-09-25T23:08:11.524Z,5.47
2022-09-25T23:11:06.044Z,10.07
2022-09-25T23:13:34.609Z,8.67
2022-09-25T23:16:08.105Z,4.03
2022-09-25T23:18:39.385Z,3.57
2022-09-25T23:21:10.679Z,6.13
2022-09-25T23:23:41.994Z,4.57
2022-09-25T23:26:13.235Z,5.20
2022-09-25T23:28:44.502Z,7.37
2022-09-25T23:31:17.356Z,6.47
2022-09-25T23:33:48.702Z,9.57
2022-09-25T23:36:21.962Z,6.87
2022-09-25T23:38:55.023Z,6.13
2022-09-25T23:41:29.999Z,7.67
2022-09-25T23:44:03.270Z,6.03
2022-09-25T23:46:37.860Z,8.17
2022-09-25T23:49:10.277Z,5.00
2022-09-25T23:51:41.634Z,5.17
2022-09-25T23:54:12.930Z,7.90
2022-09-25T23:56:44.306Z,4.57
2022-09-25T23:59:15.951Z,8.13
